WetterOnline ( https://www.wetteronline.de )

Wetter aktuell Sangerhausen

Aktuelles Wetter: Artern (166m)

6-stündlich | Neueste Meldungen
Ortszeit Temperatur Wetter
Di, 22.06. 2:00 15.3° C bewölkt
Mo, 21.06. 20:00 25.1° C wolkenlos
Mo, 21.06. 14:00 25.8° C wolkig
Mo, 21.06. 8:00 19.7° C wolkig
Mo, 21.06. 2:00 19.5° C Regen
So, 20.06. 20:00 25.6° C bedeckt
So, 20.06. 14:00 29.8° C wolkig
So, 20.06. 8:00 23.5° C bedeckt
Ortszeit Temperatur Wetter
Di, 22.06. 4:30 15.3° C bedeckt
Di, 22.06. 4:20 15.3° C bedeckt
Di, 22.06. 4:10 15.3° C bedeckt
Di, 22.06. 4:00 15.1° C bedeckt
Di, 22.06. 3:50 15.1° C bedeckt
Di, 22.06. 3:40 15.0° C bedeckt
Di, 22.06. 3:30 15.0° C bedeckt
Di, 22.06. 3:00 15.0° C bewölkt
Ortszeit Relative Feuchte Sichtweite
Di, 22.06. 2:00 88% >70 km
Mo, 21.06. 20:00 55% 65 km
Mo, 21.06. 14:00 55% 65 km
Mo, 21.06. 8:00 89% 40 km
Mo, 21.06. 2:00 90% 7 km
So, 20.06. 20:00 61% 65 km
So, 20.06. 14:00 45% 50 km
So, 20.06. 8:00 73% 35 km
Ortszeit Relative Feuchte Sichtweite
Di, 22.06. 4:30 81% >70 km
Di, 22.06. 4:20 81% -
Di, 22.06. 4:10 82% -
Di, 22.06. 4:00 88% >70 km
Di, 22.06. 3:50 88% -
Di, 22.06. 3:40 87% -
Di, 22.06. 3:30 87% >70 km
Di, 22.06. 3:00 87% 65 km
Ortszeit Niederschlagsmenge Niederschlagsart
Di, 22.06. 2:00 0.0 l/m2 in 6 Std. -
Mo, 21.06. 20:00 0.0 l/m2 in 12 Std. -
Mo, 21.06. 14:00 0.0 l/m2 in 6 Std. -
Mo, 21.06. 8:00 22 l/m2 in 12 Std. Regen
Mo, 21.06. 2:00 4 l/m2 in 6 Std. Regen
So, 20.06. 20:00 0.1 l/m2 in 12 Std. Regen
So, 20.06. 14:00 0.0 l/m2 in 6 Std. -
So, 20.06. 8:00 0.1 l/m2 in 12 Std. Regen
Ortszeit Niederschlagsmenge Niederschlagsart
Di, 22.06. 4:30 0.0 l/m2 in 1 Std. -
Di, 22.06. 4:20 keine Meldung -
Di, 22.06. 4:10 keine Meldung -
Di, 22.06. 4:00 0.0 l/m2 in 1 Std. -
Di, 22.06. 3:50 keine Meldung -
Di, 22.06. 3:40 keine Meldung -
Di, 22.06. 3:30 0.0 l/m2 in 1 Std. -
Di, 22.06. 3:00 0.0 l/m2 in 1 Std. -
Ortszeit Stärke Spitze Richtung
km/h Bft. km/h Grad Sektor
Di, 22.06. 2:00 13 3 41 300° NW
Mo, 21.06. 20:00 15 3 39 240° SW
Mo, 21.06. 14:00 18 3 43 230° SW
Mo, 21.06. 8:00 11 2 70 240° SW
Mo, 21.06. 2:00 14 3 25 20° N
So, 20.06. 20:00 4 1 29 160° S
So, 20.06. 14:00 14 3 40 220° SW
So, 20.06. 8:00 7 2 18 270° W
Ortszeit Stärke Spitze Richtung
km/h Bft. km/h Grad Sektor
Di, 22.06. 4:30 7 2 11 10° N
Di, 22.06. 4:20 7 2 - 10° N
Di, 22.06. 4:10 7 2 - 20° N
Di, 22.06. 4:00 4 1 25 310° NW
Di, 22.06. 3:50 4 1 - 310° NW
Di, 22.06. 3:40 7 2 - 300° NW
Di, 22.06. 3:30 11 2 25 300° NW
Di, 22.06. 3:00 14 3 25 310° NW
Ortszeit Untergrenze Bedeckung Gattung
total tief tief mittel hoch
Di, 22.06. 2:00 6900 m 8/8 5/8 - - -
Mo, 21.06. 20:00 - 0/8 0/8 - - -
Mo, 21.06. 14:00 1140 m 6/8 6/8 - - -
Mo, 21.06. 8:00 210 m 8/8 2/8 - - -
Mo, 21.06. 2:00 2100 m 7/8 7/8 - - -
So, 20.06. 20:00 3300 m 8/8 8/8 - - -
So, 20.06. 14:00 1500 m 7/8 2/8 - - -
So, 20.06. 8:00 4200 m 8/8 8/8 - - -
Ortszeit Bedeckungsgrad in Achtel und Wolkenuntergrenze
Di, 22.06. 4:30 8(540m)
Di, 22.06. 4:20 8(540m)
Di, 22.06. 4:10 8(510m)
Di, 22.06. 4:00 8(510m)
Di, 22.06. 3:50 8(510m)
Di, 22.06. 3:40 8(510m)
Di, 22.06. 3:30 8(510m) 8(6000m)
Di, 22.06. 3:00 7(540m) 8(6600m) 8(8100m)
Ortszeit Luftdruck NN (hPa) Tendenz (hPa in 3 Std.)
Di, 22.06. 2:00 1012 + 1,7
Mo, 21.06. 20:00 1007 + 0,5
Mo, 21.06. 14:00 1007 + 0,3
Mo, 21.06. 8:00 1006 + 0,5
Mo, 21.06. 2:00 1006 - 0,9
So, 20.06. 20:00 1008 - 0,8
So, 20.06. 14:00 1009 - 0,4
So, 20.06. 8:00 1008 + 0,1
Ortszeit Luftdruck NN (hPa) Tendenz (hPa in 3 Std.)
Di, 22.06. 4:30 1013 + 1,3
Di, 22.06. 4:20 1013 keine Meldung
Di, 22.06. 4:10 1013 keine Meldung
Di, 22.06. 4:00 1012 + 0,7
Di, 22.06. 3:50 1012 keine Meldung
Di, 22.06. 3:40 1012 keine Meldung
Di, 22.06. 3:30 1012 + 1,2
Di, 22.06. 3:00 1012 + 1,4
Ortszeit Schneehöhe (cm)
Di, 22.06. 2:00 -
Mo, 21.06. 20:00 -
Mo, 21.06. 14:00 -
Mo, 21.06. 8:00 -
Mo, 21.06. 2:00 -
So, 20.06. 20:00 -
So, 20.06. 14:00 -
So, 20.06. 8:00 -
Ortszeit Schneehöhe (cm)
Di, 22.06. 4:30 -
Di, 22.06. 4:20 -
Di, 22.06. 4:10 -
Di, 22.06. 4:00 -
Di, 22.06. 3:50 -
Di, 22.06. 3:40 -
Di, 22.06. 3:30 -
Di, 22.06. 3:00 -
Link zu dieser Seite / Seite empfehlen

Das Wetter in ...